sensor_id;sensor_type;location;lat;lon;timestamp;P1;durP1;ratioP1;P2;durP2;ratioP2
48199;SDS011;33990;44.602;10.976;2023-03-05T00:01:19;16.20;;;9.02;;
48199;SDS011;33990;44.602;10.976;2023-03-05T00:03:52;11.90;;;8.60;;
48199;SDS011;33990;44.602;10.976;2023-03-05T00:06:21;11.75;;;8.68;;
48199;SDS011;33990;44.602;10.976;2023-03-05T00:08:50;11.00;;;8.43;;
48199;SDS011;33990;44.602;10.976;2023-03-05T00:11:19;13.77;;;8.48;;
48199;SDS011;33990;44.602;10.976;2023-03-05T00:13:47;11.18;;;7.97;;
48199;SDS011;33990;44.602;10.976;2023-03-05T00:16:17;12.07;;;8.35;;
48199;SDS011;33990;44.602;10.976;2023-03-05T00:18:46;10.52;;;7.65;;
48199;SDS011;33990;44.602;10.976;2023-03-05T00:21:16;12.85;;;8.65;;
48199;SDS011;33990;44.602;10.976;2023-03-05T00:23:44;12.50;;;8.50;;
48199;SDS011;33990;44.602;10.976;2023-03-05T00:26:11;11.25;;;7.97;;
48199;SDS011;33990;44.602;10.976;2023-03-05T00:28:39;12.93;;;8.52;;
48199;SDS011;33990;44.602;10.976;2023-03-05T00:31:07;9.63;;;8.00;;
48199;SDS011;33990;44.602;10.976;2023-03-05T00:33:34;11.35;;;7.65;;
48199;SDS011;33990;44.602;10.976;2023-03-05T00:36:04;10.52;;;8.02;;
48199;SDS011;33990;44.602;10.976;2023-03-05T00:38:32;10.45;;;7.68;;
48199;SDS011;33990;44.602;10.976;2023-03-05T00:41:00;9.85;;;7.72;;
48199;SDS011;33990;44.602;10.976;2023-03-05T00:43:28;11.00;;;7.28;;
48199;SDS011;33990;44.602;10.976;2023-03-05T00:45:55;10.45;;;7.32;;
48199;SDS011;33990;44.602;10.976;2023-03-05T00:48:23;11.00;;;7.80;;
48199;SDS011;33990;44.602;10.976;2023-03-05T00:50:51;10.82;;;7.63;;
48199;SDS011;33990;44.602;10.976;2023-03-05T00:53:18;8.63;;;7.72;;
48199;SDS011;33990;44.602;10.976;2023-03-05T00:55:46;11.52;;;8.38;;
48199;SDS011;33990;44.602;10.976;2023-03-05T00:58:13;12.25;;;7.22;;
48199;SDS011;33990;44.602;10.976;2023-03-05T01:00:41;12.00;;;7.18;;
48199;SDS011;33990;44.602;10.976;2023-03-05T01:03:08;8.93;;;7.55;;
48199;SDS011;33990;44.602;10.976;2023-03-05T01:05:36;11.63;;;8.90;;
48199;SDS011;33990;44.602;10.976;2023-03-05T01:08:03;11.77;;;8.15;;
48199;SDS011;33990;44.602;10.976;2023-03-05T01:10:31;10.95;;;7.90;;
48199;SDS011;33990;44.602;10.976;2023-03-05T01:12:58;9.82;;;8.13;;
48199;SDS011;33990;44.602;10.976;2023-03-05T01:15:25;9.77;;;6.90;;
48199;SDS011;33990;44.602;10.976;2023-03-05T01:17:53;9.95;;;7.20;;
48199;SDS011;33990;44.602;10.976;2023-03-05T01:20:20;11.85;;;7.78;;
48199;SDS011;33990;44.602;10.976;2023-03-05T01:22:48;10.23;;;7.53;;
48199;SDS011;33990;44.602;10.976;2023-03-05T01:25:16;10.82;;;7.85;;
48199;SDS011;33990;44.602;10.976;2023-03-05T01:27:44;8.77;;;7.32;;
48199;SDS011;33990;44.602;10.976;2023-03-05T01:30:12;11.82;;;7.75;;
48199;SDS011;33990;44.602;10.976;2023-03-05T01:32:41;11.85;;;7.43;;
48199;SDS011;33990;44.602;10.976;2023-03-05T01:35:09;7.68;;;6.88;;
48199;SDS011;33990;44.602;10.976;2023-03-05T01:37:41;10.70;;;7.35;;
48199;SDS011;33990;44.602;10.976;2023-03-05T01:40:09;8.63;;;6.68;;
48199;SDS011;33990;44.602;10.976;2023-03-05T01:42:38;9.75;;;7.70;;
48199;SDS011;33990;44.602;10.976;2023-03-05T01:45:10;10.60;;;7.35;;
48199;SDS011;33990;44.602;10.976;2023-03-05T01:47:39;10.45;;;6.88;;
48199;SDS011;33990;44.602;10.976;2023-03-05T01:50:08;10.18;;;7.47;;
48199;SDS011;33990;44.602;10.976;2023-03-05T01:52:40;10.38;;;7.13;;
48199;SDS011;33990;44.602;10.976;2023-03-05T01:55:12;8.07;;;6.80;;
48199;SDS011;33990;44.602;10.976;2023-03-05T01:57:43;9.95;;;7.80;;
48199;SDS011;33990;44.602;10.976;2023-03-05T02:00:57;11.05;;;7.90;;
48199;SDS011;33990;44.602;10.976;2023-03-05T02:03:10;9.35;;;7.10;;
48199;SDS011;33990;44.602;10.976;2023-03-05T02:05:40;8.57;;;7.22;;
48199;SDS011;33990;44.602;10.976;2023-03-05T02:08:14;10.77;;;8.07;;
48199;SDS011;33990;44.602;10.976;2023-03-05T02:10:45;9.80;;;7.68;;
48199;SDS011;33990;44.602;10.976;2023-03-05T02:13:19;9.07;;;7.32;;
48199;SDS011;33990;44.602;10.976;2023-03-05T02:15:49;8.35;;;7.28;;
48199;SDS011;33990;44.602;10.976;2023-03-05T02:18:21;10.30;;;7.30;;
48199;SDS011;33990;44.602;10.976;2023-03-05T02:23:24;8.68;;;7.45;;
48199;SDS011;33990;44.602;10.976;2023-03-05T02:25:54;11.95;;;7.50;;
48199;SDS011;33990;44.602;10.976;2023-03-05T02:28:23;8.90;;;7.05;;
48199;SDS011;33990;44.602;10.976;2023-03-05T02:30:54;8.30;;;7.30;;
48199;SDS011;33990;44.602;10.976;2023-03-05T02:33:21;9.27;;;7.03;;
48199;SDS011;33990;44.602;10.976;2023-03-05T02:35:49;10.52;;;7.72;;
48199;SDS011;33990;44.602;10.976;2023-03-05T02:38:18;10.00;;;8.10;;
48199;SDS011;33990;44.602;10.976;2023-03-05T02:40:47;8.68;;;6.70;;
48199;SDS011;33990;44.602;10.976;2023-03-05T02:43:16;9.18;;;7.65;;
48199;SDS011;33990;44.602;10.976;2023-03-05T02:45:43;9.23;;;7.53;;
48199;SDS011;33990;44.602;10.976;2023-03-05T02:48:11;11.63;;;7.72;;
48199;SDS011;33990;44.602;10.976;2023-03-05T02:50:38;9.45;;;6.47;;
48199;SDS011;33990;44.602;10.976;2023-03-05T02:53:07;9.05;;;6.78;;
48199;SDS011;33990;44.602;10.976;2023-03-05T02:55:36;9.52;;;6.45;;
48199;SDS011;33990;44.602;10.976;2023-03-05T02:58:04;10.32;;;6.63;;
48199;SDS011;33990;44.602;10.976;2023-03-05T03:00:31;9.18;;;7.18;;
48199;SDS011;33990;44.602;10.976;2023-03-05T03:02:59;11.18;;;6.78;;
48199;SDS011;33990;44.602;10.976;2023-03-05T03:05:26;11.85;;;7.13;;
48199;SDS011;33990;44.602;10.976;2023-03-05T03:07:54;8.23;;;6.63;;
48199;SDS011;33990;44.602;10.976;2023-03-05T03:10:21;10.27;;;6.30;;
48199;SDS011;33990;44.602;10.976;2023-03-05T03:12:48;9.25;;;6.68;;
48199;SDS011;33990;44.602;10.976;2023-03-05T03:15:16;7.78;;;6.63;;
48199;SDS011;33990;44.602;10.976;2023-03-05T03:17:44;9.00;;;6.95;;
48199;SDS011;33990;44.602;10.976;2023-03-05T03:20:12;10.02;;;6.95;;
48199;SDS011;33990;44.602;10.976;2023-03-05T03:22:43;8.70;;;6.50;;
48199;SDS011;33990;44.602;10.976;2023-03-05T03:25:18;9.13;;;7.45;;
48199;SDS011;33990;44.602;10.976;2023-03-05T03:27:51;11.07;;;7.60;;
48199;SDS011;33990;44.602;10.976;2023-03-05T03:30:18;10.27;;;7.10;;
48199;SDS011;33990;44.602;10.976;2023-03-05T03:32:45;10.20;;;7.20;;
48199;SDS011;33990;44.602;10.976;2023-03-05T03:35:13;9.52;;;6.68;;
48199;SDS011;33990;44.602;10.976;2023-03-05T03:37:40;10.68;;;7.10;;
48199;SDS011;33990;44.602;10.976;2023-03-05T03:40:07;9.18;;;7.22;;
48199;SDS011;33990;44.602;10.976;2023-03-05T03:42:35;9.90;;;6.97;;
48199;SDS011;33990;44.602;10.976;2023-03-05T03:45:02;8.20;;;6.88;;
48199;SDS011;33990;44.602;10.976;2023-03-05T03:47:30;8.93;;;6.70;;
48199;SDS011;33990;44.602;10.976;2023-03-05T03:49:58;10.55;;;6.78;;
48199;SDS011;33990;44.602;10.976;2023-03-05T03:52:25;8.60;;;6.47;;
48199;SDS011;33990;44.602;10.976;2023-03-05T03:54:52;8.60;;;7.13;;
48199;SDS011;33990;44.602;10.976;2023-03-05T03:57:21;11.55;;;6.80;;
48199;SDS011;33990;44.602;10.976;2023-03-05T03:59:48;7.50;;;5.95;;
48199;SDS011;33990;44.602;10.976;2023-03-05T04:02:16;11.93;;;6.65;;
48199;SDS011;33990;44.602;10.976;2023-03-05T04:04:44;7.47;;;6.25;;
48199;SDS011;33990;44.602;10.976;2023-03-05T04:07:11;9.68;;;6.85;;
48199;SDS011;33990;44.602;10.976;2023-03-05T04:09:39;10.07;;;6.57;;
48199;SDS011;33990;44.602;10.976;2023-03-05T04:12:06;8.82;;;7.03;;
48199;SDS011;33990;44.602;10.976;2023-03-05T04:14:33;9.15;;;7.03;;
48199;SDS011;33990;44.602;10.976;2023-03-05T04:17:01;9.88;;;6.85;;
48199;SDS011;33990;44.602;10.976;2023-03-05T04:19:29;10.18;;;6.60;;
48199;SDS011;33990;44.602;10.976;2023-03-05T04:21:57;8.95;;;6.43;;
48199;SDS011;33990;44.602;10.976;2023-03-05T04:24:25;7.80;;;6.13;;
48199;SDS011;33990;44.602;10.976;2023-03-05T04:26:52;10.20;;;6.85;;
48199;SDS011;33990;44.602;10.976;2023-03-05T04:29:19;10.55;;;6.60;;
48199;SDS011;33990;44.602;10.976;2023-03-05T04:31:47;11.90;;;6.60;;
48199;SDS011;33990;44.602;10.976;2023-03-05T04:34:14;8.07;;;6.30;;
48199;SDS011;33990;44.602;10.976;2023-03-05T04:36:41;8.68;;;6.65;;
48199;SDS011;33990;44.602;10.976;2023-03-05T04:39:09;7.82;;;6.07;;
48199;SDS011;33990;44.602;10.976;2023-03-05T04:41:36;9.00;;;6.55;;
48199;SDS011;33990;44.602;10.976;2023-03-05T04:44:03;9.88;;;6.22;;
48199;SDS011;33990;44.602;10.976;2023-03-05T04:46:31;9.73;;;6.03;;
48199;SDS011;33990;44.602;10.976;2023-03-05T04:48:58;11.25;;;7.38;;
48199;SDS011;33990;44.602;10.976;2023-03-05T04:51:26;11.45;;;6.50;;
48199;SDS011;33990;44.602;10.976;2023-03-05T04:53:53;9.63;;;6.25;;
48199;SDS011;33990;44.602;10.976;2023-03-05T04:56:20;7.88;;;6.35;;
48199;SDS011;33990;44.602;10.976;2023-03-05T04:58:47;9.20;;;6.43;;
48199;SDS011;33990;44.602;10.976;2023-03-05T05:01:15;8.82;;;6.30;;
48199;SDS011;33990;44.602;10.976;2023-03-05T05:03:42;8.30;;;5.85;;
48199;SDS011;33990;44.602;10.976;2023-03-05T05:06:09;9.93;;;6.00;;
48199;SDS011;33990;44.602;10.976;2023-03-05T05:08:37;9.13;;;6.03;;
48199;SDS011;33990;44.602;10.976;2023-03-05T05:11:05;8.63;;;6.22;;
48199;SDS011;33990;44.602;10.976;2023-03-05T05:13:34;10.27;;;6.63;;
48199;SDS011;33990;44.602;10.976;2023-03-05T05:16:01;8.45;;;6.10;;
48199;SDS011;33990;44.602;10.976;2023-03-05T05:18:32;9.50;;;6.40;;
48199;SDS011;33990;44.602;10.976;2023-03-05T05:20:59;9.27;;;5.88;;
48199;SDS011;33990;44.602;10.976;2023-03-05T05:23:27;10.38;;;6.43;;
48199;SDS011;33990;44.602;10.976;2023-03-05T05:25:59;8.95;;;5.93;;
48199;SDS011;33990;44.602;10.976;2023-03-05T05:28:28;10.20;;;5.88;;
48199;SDS011;33990;44.602;10.976;2023-03-05T05:30:55;9.73;;;6.40;;
48199;SDS011;33990;44.602;10.976;2023-03-05T05:33:23;9.32;;;6.07;;
48199;SDS011;33990;44.602;10.976;2023-03-05T05:35:51;9.65;;;6.43;;
48199;SDS011;33990;44.602;10.976;2023-03-05T05:38:18;12.55;;;7.72;;
48199;SDS011;33990;44.602;10.976;2023-03-05T05:40:46;7.57;;;6.22;;
48199;SDS011;33990;44.602;10.976;2023-03-05T05:43:13;13.27;;;6.55;;
48199;SDS011;33990;44.602;10.976;2023-03-05T05:45:40;8.30;;;6.60;;
48199;SDS011;33990;44.602;10.976;2023-03-05T05:48:08;11.43;;;6.63;;
48199;SDS011;33990;44.602;10.976;2023-03-05T05:50:36;7.40;;;5.75;;
48199;SDS011;33990;44.602;10.976;2023-03-05T05:53:04;9.02;;;6.30;;
48199;SDS011;33990;44.602;10.976;2023-03-05T05:55:31;7.55;;;5.90;;
48199;SDS011;33990;44.602;10.976;2023-03-05T05:57:59;11.30;;;6.80;;
48199;SDS011;33990;44.602;10.976;2023-03-05T06:00:26;9.65;;;6.60;;
48199;SDS011;33990;44.602;10.976;2023-03-05T06:02:53;9.38;;;6.00;;
48199;SDS011;33990;44.602;10.976;2023-03-05T06:05:20;9.00;;;6.60;;
48199;SDS011;33990;44.602;10.976;2023-03-05T06:07:48;8.55;;;6.10;;
48199;SDS011;33990;44.602;10.976;2023-03-05T06:10:15;7.60;;;6.18;;
48199;SDS011;33990;44.602;10.976;2023-03-05T06:12:43;9.38;;;6.00;;
48199;SDS011;33990;44.602;10.976;2023-03-05T06:15:10;8.25;;;6.53;;
48199;SDS011;33990;44.602;10.976;2023-03-05T06:17:38;12.02;;;6.07;;
48199;SDS011;33990;44.602;10.976;2023-03-05T06:20:05;9.95;;;6.22;;
48199;SDS011;33990;44.602;10.976;2023-03-05T06:22:36;8.38;;;5.90;;
48199;SDS011;33990;44.602;10.976;2023-03-05T06:25:05;7.65;;;5.75;;
48199;SDS011;33990;44.602;10.976;2023-03-05T06:27:34;9.05;;;6.20;;
48199;SDS011;33990;44.602;10.976;2023-03-05T06:30:03;7.82;;;5.40;;
48199;SDS011;33990;44.602;10.976;2023-03-05T06:32:31;7.15;;;5.25;;
48199;SDS011;33990;44.602;10.976;2023-03-05T06:34:58;7.50;;;6.03;;
48199;SDS011;33990;44.602;10.976;2023-03-05T06:37:26;8.30;;;5.68;;
48199;SDS011;33990;44.602;10.976;2023-03-05T06:39:53;8.63;;;4.82;;
48199;SDS011;33990;44.602;10.976;2023-03-05T06:42:20;9.65;;;5.88;;
48199;SDS011;33990;44.602;10.976;2023-03-05T06:44:47;7.78;;;5.30;;
48199;SDS011;33990;44.602;10.976;2023-03-05T06:47:15;7.32;;;5.82;;
48199;SDS011;33990;44.602;10.976;2023-03-05T06:49:42;8.32;;;5.80;;
48199;SDS011;33990;44.602;10.976;2023-03-05T06:52:09;9.77;;;6.10;;
48199;SDS011;33990;44.602;10.976;2023-03-05T06:54:38;13.77;;;6.50;;
48199;SDS011;33990;44.602;10.976;2023-03-05T06:57:06;7.03;;;5.30;;
48199;SDS011;33990;44.602;10.976;2023-03-05T06:59:33;7.35;;;5.13;;
48199;SDS011;33990;44.602;10.976;2023-03-05T07:02:00;8.20;;;5.65;;
48199;SDS011;33990;44.602;10.976;2023-03-05T07:04:28;8.60;;;5.68;;
48199;SDS011;33990;44.602;10.976;2023-03-05T07:06:55;10.07;;;6.35;;
48199;SDS011;33990;44.602;10.976;2023-03-05T07:09:23;9.93;;;5.90;;
48199;SDS011;33990;44.602;10.976;2023-03-05T07:11:50;8.70;;;6.32;;
48199;SDS011;33990;44.602;10.976;2023-03-05T07:14:18;10.05;;;5.88;;
48199;SDS011;33990;44.602;10.976;2023-03-05T07:16:45;8.73;;;6.20;;
48199;SDS011;33990;44.602;10.976;2023-03-05T07:19:12;8.27;;;5.55;;
48199;SDS011;33990;44.602;10.976;2023-03-05T07:21:40;11.02;;;6.53;;
48199;SDS011;33990;44.602;10.976;2023-03-05T07:24:07;8.48;;;5.70;;
48199;SDS011;33990;44.602;10.976;2023-03-05T07:26:35;7.95;;;5.35;;
48199;SDS011;33990;44.602;10.976;2023-03-05T07:29:02;8.68;;;6.32;;
48199;SDS011;33990;44.602;10.976;2023-03-05T07:31:30;7.63;;;6.10;;
48199;SDS011;33990;44.602;10.976;2023-03-05T07:33:58;6.85;;;5.32;;
48199;SDS011;33990;44.602;10.976;2023-03-05T07:36:27;8.25;;;5.88;;
48199;SDS011;33990;44.602;10.976;2023-03-05T07:38:56;10.35;;;6.22;;
48199;SDS011;33990;44.602;10.976;2023-03-05T07:41:23;10.57;;;6.30;;
48199;SDS011;33990;44.602;10.976;2023-03-05T07:43:52;7.28;;;5.30;;
48199;SDS011;33990;44.602;10.976;2023-03-05T07:46:22;9.15;;;6.35;;
48199;SDS011;33990;44.602;10.976;2023-03-05T07:48:51;9.07;;;5.85;;
48199;SDS011;33990;44.602;10.976;2023-03-05T07:51:21;7.03;;;5.75;;
48199;SDS011;33990;44.602;10.976;2023-03-05T07:53:50;7.88;;;6.32;;
48199;SDS011;33990;44.602;10.976;2023-03-05T07:56:20;10.50;;;6.18;;
48199;SDS011;33990;44.602;10.976;2023-03-05T07:58:58;10.10;;;5.35;;
48199;SDS011;33990;44.602;10.976;2023-03-05T08:01:27;9.50;;;6.10;;
48199;SDS011;33990;44.602;10.976;2023-03-05T08:03:55;8.38;;;5.90;;
48199;SDS011;33990;44.602;10.976;2023-03-05T08:06:22;10.23;;;6.57;;
48199;SDS011;33990;44.602;10.976;2023-03-05T08:08:50;6.85;;;5.68;;
48199;SDS011;33990;44.602;10.976;2023-03-05T08:11:17;7.43;;;5.28;;
48199;SDS011;33990;44.602;10.976;2023-03-05T08:13:44;9.10;;;5.45;;
48199;SDS011;33990;44.602;10.976;2023-03-05T08:16:13;7.72;;;5.53;;
48199;SDS011;33990;44.602;10.976;2023-03-05T08:18:43;10.35;;;5.57;;
48199;SDS011;33990;44.602;10.976;2023-03-05T08:21:15;8.35;;;5.78;;
48199;SDS011;33990;44.602;10.976;2023-03-05T08:23:47;8.23;;;4.70;;
48199;SDS011;33990;44.602;10.976;2023-03-05T08:26:18;7.25;;;4.50;;
48199;SDS011;33990;44.602;10.976;2023-03-05T08:28:46;6.95;;;4.82;;
48199;SDS011;33990;44.602;10.976;2023-03-05T08:31:15;7.05;;;4.25;;
48199;SDS011;33990;44.602;10.976;2023-03-05T08:33:44;8.40;;;4.10;;
48199;SDS011;33990;44.602;10.976;2023-03-05T08:36:11;7.20;;;4.30;;
48199;SDS011;33990;44.602;10.976;2023-03-05T08:38:39;6.38;;;4.78;;
48199;SDS011;33990;44.602;10.976;2023-03-05T08:41:06;9.15;;;5.10;;
48199;SDS011;33990;44.602;10.976;2023-03-05T08:43:34;8.63;;;4.78;;
48199;SDS011;33990;44.602;10.976;2023-03-05T08:46:01;9.07;;;4.95;;
48199;SDS011;33990;44.602;10.976;2023-03-05T08:48:29;8.48;;;5.13;;
48199;SDS011;33990;44.602;10.976;2023-03-05T08:51:03;9.48;;;4.50;;
48199;SDS011;33990;44.602;10.976;2023-03-05T08:53:32;5.18;;;4.30;;
48199;SDS011;33990;44.602;10.976;2023-03-05T08:55:59;5.75;;;4.03;;
48199;SDS011;33990;44.602;10.976;2023-03-05T08:58:27;5.50;;;4.55;;
48199;SDS011;33990;44.602;10.976;2023-03-05T09:00:54;7.68;;;4.80;;
48199;SDS011;33990;44.602;10.976;2023-03-05T09:03:22;7.10;;;4.80;;
48199;SDS011;33990;44.602;10.976;2023-03-05T09:05:50;5.90;;;3.80;;
48199;SDS011;33990;44.602;10.976;2023-03-05T09:08:18;5.63;;;4.05;;
48199;SDS011;33990;44.602;10.976;2023-03-05T09:10:45;6.40;;;4.20;;
48199;SDS011;33990;44.602;10.976;2023-03-05T09:13:12;7.60;;;4.68;;
48199;SDS011;33990;44.602;10.976;2023-03-05T09:15:40;7.78;;;4.35;;
48199;SDS011;33990;44.602;10.976;2023-03-05T09:18:07;7.43;;;5.28;;
48199;SDS011;33990;44.602;10.976;2023-03-05T09:20:35;7.72;;;5.63;;
48199;SDS011;33990;44.602;10.976;2023-03-05T09:23:03;9.45;;;5.97;;
48199;SDS011;33990;44.602;10.976;2023-03-05T09:25:30;7.63;;;5.50;;
48199;SDS011;33990;44.602;10.976;2023-03-05T09:27:58;11.77;;;5.72;;
48199;SDS011;33990;44.602;10.976;2023-03-05T09:30:25;7.70;;;6.25;;
48199;SDS011;33990;44.602;10.976;2023-03-05T09:32:52;9.50;;;6.38;;
48199;SDS011;33990;44.602;10.976;2023-03-05T09:35:19;8.02;;;6.03;;
48199;SDS011;33990;44.602;10.976;2023-03-05T09:37:47;8.90;;;6.15;;
48199;SDS011;33990;44.602;10.976;2023-03-05T09:40:15;10.25;;;6.30;;
48199;SDS011;33990;44.602;10.976;2023-03-05T09:42:45;8.70;;;6.45;;
48199;SDS011;33990;44.602;10.976;2023-03-05T09:53:00;13.57;;;7.60;;
48199;SDS011;33990;44.602;10.976;2023-03-05T09:55:52;12.55;;;8.50;;
48199;SDS011;33990;44.602;10.976;2023-03-05T10:01:00;10.98;;;7.20;;
48199;SDS011;33990;44.602;10.976;2023-03-05T10:03:40;10.90;;;6.50;;
48199;SDS011;33990;44.602;10.976;2023-03-05T10:06:22;11.27;;;7.22;;
48199;SDS011;33990;44.602;10.976;2023-03-05T10:22:20;11.00;;;6.60;;
48199;SDS011;33990;44.602;10.976;2023-03-05T10:32:55;8.98;;;6.20;;
48199;SDS011;33990;44.602;10.976;2023-03-05T10:41:07;8.32;;;5.95;;
48199;SDS011;33990;44.602;10.976;2023-03-05T10:46:35;10.02;;;6.57;;
48199;SDS011;33990;44.602;10.976;2023-03-05T10:49:16;7.95;;;6.10;;
48199;SDS011;33990;44.602;10.976;2023-03-05T10:52:09;8.52;;;6.72;;
48199;SDS011;33990;44.602;10.976;2023-03-05T10:54:51;7.80;;;5.50;;
48199;SDS011;33990;44.602;10.976;2023-03-05T10:57:19;8.38;;;5.97;;
48199;SDS011;33990;44.602;10.976;2023-03-05T10:59:52;10.02;;;6.22;;
48199;SDS011;33990;44.602;10.976;2023-03-05T11:02:23;6.38;;;4.63;;
48199;SDS011;33990;44.602;10.976;2023-03-05T11:04:51;5.78;;;4.07;;
48199;SDS011;33990;44.602;10.976;2023-03-05T11:10:05;6.32;;;3.83;;
48199;SDS011;33990;44.602;10.976;2023-03-05T11:12:40;8.15;;;3.70;;
48199;SDS011;33990;44.602;10.976;2023-03-05T11:17:46;5.63;;;3.85;;
48199;SDS011;33990;44.602;10.976;2023-03-05T11:23:15;6.07;;;4.07;;
48199;SDS011;33990;44.602;10.976;2023-03-05T11:28:37;8.60;;;5.07;;
48199;SDS011;33990;44.602;10.976;2023-03-05T11:31:22;7.85;;;5.13;;
48199;SDS011;33990;44.602;10.976;2023-03-05T11:33:55;9.95;;;5.78;;
48199;SDS011;33990;44.602;10.976;2023-03-05T11:36:26;9.93;;;5.85;;
48199;SDS011;33990;44.602;10.976;2023-03-05T11:39:18;9.02;;;6.13;;
48199;SDS011;33990;44.602;10.976;2023-03-05T11:44:20;10.82;;;6.07;;
48199;SDS011;33990;44.602;10.976;2023-03-05T11:46:53;9.73;;;5.97;;
48199;SDS011;33990;44.602;10.976;2023-03-05T11:49:26;9.63;;;6.82;;
48199;SDS011;33990;44.602;10.976;2023-03-05T11:51:57;8.35;;;6.15;;
48199;SDS011;33990;44.602;10.976;2023-03-05T11:54:32;9.38;;;5.70;;
48199;SDS011;33990;44.602;10.976;2023-03-05T11:57:09;9.02;;;6.00;;
48199;SDS011;33990;44.602;10.976;2023-03-05T11:59:41;10.82;;;6.57;;
48199;SDS011;33990;44.602;10.976;2023-03-05T12:02:19;11.55;;;6.65;;
48199;SDS011;33990;44.602;10.976;2023-03-05T12:04:49;12.13;;;6.43;;
48199;SDS011;33990;44.602;10.976;2023-03-05T12:07:22;8.73;;;5.95;;
48199;SDS011;33990;44.602;10.976;2023-03-05T12:10:01;10.75;;;5.78;;
48199;SDS011;33990;44.602;10.976;2023-03-05T12:15:24;8.52;;;6.20;;
48199;SDS011;33990;44.602;10.976;2023-03-05T12:23:28;10.18;;;5.95;;
48199;SDS011;33990;44.602;10.976;2023-03-05T12:26:14;8.55;;;5.75;;
48199;SDS011;33990;44.602;10.976;2023-03-05T12:37:11;10.18;;;6.45;;
48199;SDS011;33990;44.602;10.976;2023-03-05T12:45:40;8.23;;;5.45;;
48199;SDS011;33990;44.602;10.976;2023-03-05T12:47:42;9.82;;;6.15;;
48199;SDS011;33990;44.602;10.976;2023-03-05T12:58:03;8.50;;;5.35;;
48199;SDS011;33990;44.602;10.976;2023-03-05T13:03:29;8.73;;;5.47;;
48199;SDS011;33990;44.602;10.976;2023-03-05T13:06:01;6.75;;;5.03;;
48199;SDS011;33990;44.602;10.976;2023-03-05T13:08:32;9.38;;;5.35;;
48199;SDS011;33990;44.602;10.976;2023-03-05T13:11:04;10.05;;;5.63;;
48199;SDS011;33990;44.602;10.976;2023-03-05T13:13:36;8.65;;;5.93;;
48199;SDS011;33990;44.602;10.976;2023-03-05T13:16:21;10.07;;;6.05;;
48199;SDS011;33990;44.602;10.976;2023-03-05T13:18:52;9.55;;;5.55;;
48199;SDS011;33990;44.602;10.976;2023-03-05T13:21:23;7.47;;;5.30;;
48199;SDS011;33990;44.602;10.976;2023-03-05T13:23:53;8.88;;;5.68;;
48199;SDS011;33990;44.602;10.976;2023-03-05T13:26:29;10.95;;;5.55;;
48199;SDS011;33990;44.602;10.976;2023-03-05T13:31:40;9.93;;;5.75;;
48199;SDS011;33990;44.602;10.976;2023-03-05T13:34:23;10.50;;;5.15;;
48199;SDS011;33990;44.602;10.976;2023-03-05T13:39:49;12.57;;;5.18;;
48199;SDS011;33990;44.602;10.976;2023-03-05T13:42:23;9.07;;;5.10;;
48199;SDS011;33990;44.602;10.976;2023-03-05T13:44:52;10.50;;;5.30;;
48199;SDS011;33990;44.602;10.976;2023-03-05T13:47:21;9.68;;;4.53;;
48199;SDS011;33990;44.602;10.976;2023-03-05T13:50:25;10.35;;;4.60;;
48199;SDS011;33990;44.602;10.976;2023-03-05T13:52:52;7.47;;;4.47;;
48199;SDS011;33990;44.602;10.976;2023-03-05T13:55:20;8.07;;;4.85;;
48199;SDS011;33990;44.602;10.976;2023-03-05T13:57:49;9.57;;;5.18;;
48199;SDS011;33990;44.602;10.976;2023-03-05T14:02:59;10.50;;;4.40;;
48199;SDS011;33990;44.602;10.976;2023-03-05T14:05:34;14.20;;;5.03;;
48199;SDS011;33990;44.602;10.976;2023-03-05T14:08:02;5.47;;;4.72;;
48199;SDS011;33990;44.602;10.976;2023-03-05T14:10:36;12.27;;;5.05;;
48199;SDS011;33990;44.602;10.976;2023-03-05T14:13:05;5.88;;;4.15;;
48199;SDS011;33990;44.602;10.976;2023-03-05T14:15:39;10.40;;;5.18;;
48199;SDS011;33990;44.602;10.976;2023-03-05T14:20:39;7.15;;;4.43;;
48199;SDS011;33990;44.602;10.976;2023-03-05T14:23:49;7.53;;;4.78;;
48199;SDS011;33990;44.602;10.976;2023-03-05T14:26:25;7.55;;;4.90;;
48199;SDS011;33990;44.602;10.976;2023-03-05T14:31:36;8.98;;;4.82;;
48199;SDS011;33990;44.602;10.976;2023-03-05T14:34:21;9.55;;;4.70;;
48199;SDS011;33990;44.602;10.976;2023-03-05T14:36:52;7.07;;;4.60;;
48199;SDS011;33990;44.602;10.976;2023-03-05T14:39:25;9.02;;;4.60;;
48199;SDS011;33990;44.602;10.976;2023-03-05T14:44:58;9.35;;;4.00;;
48199;SDS011;33990;44.602;10.976;2023-03-05T14:47:27;9.27;;;4.15;;
48199;SDS011;33990;44.602;10.976;2023-03-05T14:49:54;6.47;;;4.07;;
48199;SDS011;33990;44.602;10.976;2023-03-05T14:52:22;9.00;;;5.30;;
48199;SDS011;33990;44.602;10.976;2023-03-05T14:54:51;7.63;;;4.03;;
48199;SDS011;33990;44.602;10.976;2023-03-05T14:57:20;6.25;;;4.15;;
48199;SDS011;33990;44.602;10.976;2023-03-05T14:59:51;7.15;;;4.50;;
48199;SDS011;33990;44.602;10.976;2023-03-05T15:02:19;9.63;;;4.53;;
48199;SDS011;33990;44.602;10.976;2023-03-05T15:04:48;7.28;;;4.18;;
48199;SDS011;33990;44.602;10.976;2023-03-05T15:09:45;5.90;;;3.65;;
48199;SDS011;33990;44.602;10.976;2023-03-05T15:12:14;7.20;;;3.53;;
48199;SDS011;33990;44.602;10.976;2023-03-05T15:14:42;8.93;;;5.20;;
48199;SDS011;33990;44.602;10.976;2023-03-05T15:19:48;6.70;;;4.22;;
48199;SDS011;33990;44.602;10.976;2023-03-05T15:22:16;6.22;;;4.20;;
48199;SDS011;33990;44.602;10.976;2023-03-05T15:24:43;6.57;;;4.28;;
48199;SDS011;33990;44.602;10.976;2023-03-05T15:27:11;6.53;;;3.60;;
48199;SDS011;33990;44.602;10.976;2023-03-05T15:29:38;6.47;;;3.67;;
48199;SDS011;33990;44.602;10.976;2023-03-05T15:32:06;7.05;;;3.60;;
48199;SDS011;33990;44.602;10.976;2023-03-05T15:34:34;7.55;;;3.63;;
48199;SDS011;33990;44.602;10.976;2023-03-05T15:37:02;4.22;;;3.25;;
48199;SDS011;33990;44.602;10.976;2023-03-05T15:39:30;5.95;;;4.00;;
48199;SDS011;33990;44.602;10.976;2023-03-05T15:41:57;11.38;;;4.05;;
48199;SDS011;33990;44.602;10.976;2023-03-05T15:44:24;7.63;;;4.07;;
48199;SDS011;33990;44.602;10.976;2023-03-05T15:46:52;9.68;;;5.05;;
48199;SDS011;33990;44.602;10.976;2023-03-05T15:49:19;6.72;;;4.55;;
48199;SDS011;33990;44.602;10.976;2023-03-05T15:51:49;9.02;;;4.78;;
48199;SDS011;33990;44.602;10.976;2023-03-05T15:54:17;5.68;;;3.92;;
48199;SDS011;33990;44.602;10.976;2023-03-05T15:56:44;5.72;;;3.47;;
48199;SDS011;33990;44.602;10.976;2023-03-05T15:59:12;6.35;;;4.60;;
48199;SDS011;33990;44.602;10.976;2023-03-05T16:01:42;5.80;;;4.03;;
48199;SDS011;33990;44.602;10.976;2023-03-05T16:04:15;6.07;;;3.85;;
48199;SDS011;33990;44.602;10.976;2023-03-05T16:06:45;9.63;;;4.35;;
48199;SDS011;33990;44.602;10.976;2023-03-05T16:09:15;7.03;;;4.13;;
48199;SDS011;33990;44.602;10.976;2023-03-05T16:11:45;6.32;;;4.10;;
48199;SDS011;33990;44.602;10.976;2023-03-05T16:14:15;7.65;;;4.65;;
48199;SDS011;33990;44.602;10.976;2023-03-05T16:16:45;7.45;;;4.40;;
48199;SDS011;33990;44.602;10.976;2023-03-05T16:19:13;8.82;;;4.45;;
48199;SDS011;33990;44.602;10.976;2023-03-05T16:21:44;7.45;;;4.15;;
48199;SDS011;33990;44.602;10.976;2023-03-05T16:24:11;8.52;;;4.00;;
48199;SDS011;33990;44.602;10.976;2023-03-05T16:26:39;7.63;;;4.88;;
48199;SDS011;33990;44.602;10.976;2023-03-05T16:29:07;5.95;;;4.22;;
48199;SDS011;33990;44.602;10.976;2023-03-05T16:31:35;7.35;;;4.30;;
48199;SDS011;33990;44.602;10.976;2023-03-05T16:34:09;9.95;;;4.07;;
48199;SDS011;33990;44.602;10.976;2023-03-05T16:36:36;6.75;;;4.18;;